Time;durP1;ratioP1;P1;durP2;ratioP2;P2;SDS_P1;SDS_P2;PMS_P1;PMS_P2;Temp;Humidity;BMP_temperature;BMP_pressure;BME280_temperature;BME280_humidity;BME280_pressure;Samples;Min_cycle;Max_cycle;Signal;HPM_P1;HPM_P2
2021/07/03 00:02:13;;;;;;;;;27.00;23.00;;;;;-147.17;100.00;59696.56;4987304;28;32909;-48
2021/07/03 00:04:39;;;;;;;;;25.00;25.00;;;;;-147.17;100.00;59696.56;4990092;28;32628;-46
2021/07/03 00:07:05;;;;;;;;;33.50;31.75;;;;;-147.17;100.00;59696.56;4989304;28;32655;-46
2021/07/03 00:09:30;;;;;;;;;29.75;29.00;;;;;-147.17;100.00;59696.56;4990376;28;33327;-46
2021/07/03 00:11:59;;;;;;;;;27.00;26.50;;;;;-147.17;100.00;59696.56;4989669;28;32869;-46
2021/07/03 00:14:25;;;;;;;;;21.25;21.25;;;;;-147.17;100.00;59696.56;4992193;28;36993;-47
2021/07/03 00:16:51;;;;;;;;;23.00;22.50;;;;;-147.17;100.00;59696.56;4972976;28;32021;-48
2021/07/03 00:19:16;;;;;;;;;22.75;20.50;;;;;-147.17;100.00;59696.56;4980475;28;32139;-48
2021/07/03 00:21:42;;;;;;;;;22.50;20.00;;;;;-147.17;100.00;59696.56;4989312;28;33527;-46
2021/07/03 00:24:07;;;;;;;;;24.00;22.00;;;;;-147.17;100.00;59696.56;4989919;28;32612;-48
2021/07/03 00:26:32;;;;;;;;;23.25;21.75;;;;;-147.17;100.00;59696.56;4989310;28;31849;-48
2021/07/03 00:28:58;;;;;;;;;22.00;21.00;;;;;-147.17;100.00;59696.56;4989687;28;32394;-48
2021/07/03 00:31:23;;;;;;;;;20.75;18.75;;;;;-147.17;100.00;59696.56;4989499;28;33030;-47
2021/07/03 00:33:49;;;;;;;;;22.50;21.00;;;;;-147.17;100.00;59696.56;4986199;28;33136;-51
2021/07/03 00:36:14;;;;;;;;;20.50;20.50;;;;;-147.17;100.00;59696.56;4989446;28;33781;-48
2021/07/03 00:38:40;;;;;;;;;21.00;19.75;;;;;-147.17;100.00;59696.56;4980000;28;33736;-48
2021/07/03 00:41:05;;;;;;;;;17.33;17.33;;;;;-147.17;100.00;59696.56;4979954;28;33384;-48
2021/07/03 00:43:30;;;;;;;;;18.25;17.25;;;;;-147.17;100.00;59696.56;4991671;28;33913;-48
2021/07/03 00:45:56;;;;;;;;;22.50;21.25;;;;;-147.17;100.00;59696.56;4999571;28;33644;-49
2021/07/03 00:48:21;;;;;;;;;18.75;18.50;;;;;-147.17;100.00;59696.56;4990913;28;37253;-50
2021/07/03 00:50:46;;;;;;;;;19.75;19.75;;;;;-147.17;100.00;59696.56;4978236;28;54208;-48
2021/07/03 00:53:15;;;;;;;;;17.00;16.67;;;;;-147.17;100.00;59696.56;4935605;28;344275;-55
2021/07/03 00:55:41;;;;;;;;;19.50;18.50;;;;;-147.17;100.00;59696.56;4974367;28;79622;-49
2021/07/03 00:58:06;;;;;;;;;16.25;15.75;;;;;-147.17;100.00;59696.56;4946848;28;68596;-48
2021/07/03 01:00:32;;;;;;;;;18.00;17.00;;;;;-147.17;100.00;59696.56;4953711;28;81058;-49
2021/07/03 01:02:57;;;;;;;;;21.00;19.00;;;;;-147.17;100.00;59696.56;4923038;28;251559;-48
2021/07/03 01:05:22;;;;;;;;;16.75;16.25;;;;;-147.17;100.00;59696.56;4899889;28;204715;-47
2021/07/03 01:07:48;;;;;;;;;18.67;17.33;;;;;-147.17;100.00;59696.56;4887532;28;214930;-47
2021/07/03 01:10:31;;;;;;;;;20.00;20.00;;;;;-147.17;100.00;59696.56;4867350;28;231793;-48
2021/07/03 01:12:58;;;;;;;;;20.00;18.75;;;;;-147.17;100.00;59696.56;4898349;28;159489;-45
2021/07/03 01:15:24;;;;;;;;;17.67;17.00;;;;;-147.17;100.00;59696.56;4880694;28;195385;-47
2021/07/03 01:17:50;;;;;;;;;17.00;16.67;;;;;-147.17;100.00;59696.56;4823141;28;223474;-47
2021/07/03 01:20:17;;;;;;;;;17.50;17.50;;;;;-147.17;100.00;59696.56;4852252;28;230929;-49
2021/07/03 01:22:45;;;;;;;;;20.75;18.75;;;;;-147.17;100.00;59696.56;4853234;28;248998;-48
2021/07/03 01:25:13;;;;;;;;;19.00;17.67;;;;;-147.17;100.00;59696.56;4932236;28;112458;-48
2021/07/03 01:27:38;;;;;;;;;16.75;15.75;;;;;-147.17;100.00;59696.56;4752757;28;774717;-48
2021/07/03 01:30:08;;;;;;;;;16.67;16.67;;;;;-147.17;100.00;59696.56;4869885;28;265145;-48
2021/07/03 01:32:33;;;;;;;;;18.00;17.00;;;;;-147.17;100.00;59696.56;4852574;28;221679;-49
2021/07/03 01:34:59;;;;;;;;;20.00;19.50;;;;;-147.17;100.00;59696.56;4885381;28;176027;-46
2021/07/03 01:37:25;;;;;;;;;25.75;24.00;;;;;-147.17;100.00;59696.56;4865995;28;204544;-50
2021/07/03 01:39:51;;;;;;;;;20.50;19.25;;;;;-147.17;100.00;59696.56;4822113;28;254461;-46
2021/07/03 01:42:17;;;;;;;;;19.00;18.25;;;;;-147.17;100.00;59696.56;4777900;28;291141;-48
2021/07/03 01:44:45;;;;;;;;;22.00;22.00;;;;;-147.17;100.00;59696.56;4712436;28;370622;-46
2021/07/03 01:47:12;;;;;;;;;24.50;22.75;;;;;-147.17;100.00;59696.56;4620273;28;468768;-49
2021/07/03 01:49:40;;;;;;;;;20.33;20.33;;;;;-147.17;100.00;59696.56;4780800;28;730671;-47
2021/07/03 01:52:06;;;;;;;;;18.33;18.33;;;;;-147.17;100.00;59696.56;4914728;28;168507;-47
2021/07/03 01:54:32;;;;;;;;;18.25;17.75;;;;;-147.17;100.00;59696.56;4803879;28;281652;-49
2021/07/03 01:56:58;;;;;;;;;18.00;18.00;;;;;-147.17;100.00;59696.56;4759289;28;289545;-47
2021/07/03 01:59:34;;;;;;;;;20.33;19.00;;;;;-147.17;100.00;59696.56;4743932;28;401096;-47
2021/07/03 02:02:02;;;;;;;;;22.67;19.33;;;;;-147.17;100.00;59696.56;4553200;28;694124;-46
2021/07/03 02:04:29;;;;;;;;;19.40;18.40;;;;;-147.17;100.00;59696.56;4339402;28;1028985;-46
2021/07/03 02:06:56;;;;;;;;;18.00;18.00;;;;;-147.17;100.00;59696.56;4364142;28;1319266;-46
2021/07/03 02:09:24;;;;;;;;;15.50;15.25;;;;;-147.17;100.00;59696.56;4388732;28;1119185;-46
2021/07/03 02:11:51;;;;;;;;;17.00;17.00;;;;;-147.17;100.00;59696.56;4482840;28;778463;-47
2021/07/03 02:14:17;;;;;;;;;17.67;17.00;;;;;-147.17;100.00;59696.56;4432248;28;703242;-46
2021/07/03 02:16:43;;;;;;;;;17.25;17.00;;;;;-147.17;100.00;59696.56;4608598;28;848319;-46
2021/07/03 02:19:10;;;;;;;;;19.00;18.00;;;;;-147.17;100.00;59696.56;4686459;28;823782;-47
2021/07/03 02:21:37;;;;;;;;;18.67;18.67;;;;;-147.17;100.00;59696.56;4733840;28;352773;-46
2021/07/03 02:24:04;;;;;;;;;16.00;16.00;;;;;-147.17;100.00;59696.56;4646228;28;763559;-46
2021/07/03 02:26:30;;;;;;;;;22.00;21.00;;;;;-147.17;100.00;59696.56;4696076;28;601714;-47
2021/07/03 02:28:56;;;;;;;;;20.67;19.33;;;;;-147.17;100.00;59696.56;4809746;28;423172;-47
2021/07/03 02:31:22;;;;;;;;;22.25;22.00;;;;;-147.17;100.00;59696.56;4842488;28;403491;-48
2021/07/03 02:33:48;;;;;;;;;21.50;20.75;;;;;-147.17;100.00;59696.56;4792843;28;370338;-46
2021/07/03 02:36:14;;;;;;;;;21.75;19.50;;;;;-147.17;100.00;59696.56;4819611;28;259258;-46
2021/07/03 02:38:40;;;;;;;;;17.00;16.33;;;;;-147.17;100.00;59696.56;4868807;28;420381;-47
2021/07/03 02:48:31;;;;;;;;;;;;;;;-147.17;100.00;59696.56;1416944;28;260320709;-46
2021/07/03 02:58:58;;;;;;;;;10.50;10.50;;;;;-147.17;100.00;59696.56;2;301964411;301964411;-48
2021/07/03 03:07:43;;;;;;;;;13.50;13.50;;;;;-147.17;100.00;59696.56;2;246955946;246955946;-49
2021/07/03 03:17:27;;;;;;;;;18.50;18.50;;;;;-147.17;100.00;59696.56;2;272168015;272168015;-48
2021/07/03 03:19:52;;;;;;;;;15.75;15.75;;;;;-147.17;100.00;59696.56;4423985;28;10425951;-48
2021/07/03 03:22:18;;;;;;;;;16.33;16.33;;;;;-147.17;100.00;59696.56;4896964;28;176342;-48
2021/07/03 03:24:45;;;;;;;;;14.33;13.33;;;;;-147.17;100.00;59696.56;4859260;28;228966;-47
2021/07/03 03:27:12;;;;;;;;;12.00;11.00;;;;;-147.17;100.00;59696.56;4791506;28;305365;-46
2021/07/03 03:37:37;;;;;;;;;;;;;;;-147.17;100.00;59696.56;2461334;28;313871115;-47
2021/07/03 03:40:04;;;;;;;;;14.33;14.00;;;;;-147.17;100.00;59696.56;4241371;28;20296604;-47
2021/07/03 03:42:30;;;;;;;;;17.00;16.67;;;;;-147.17;100.00;59696.56;4920491;28;140498;-47
2021/07/03 03:44:55;;;;;;;;;15.67;14.67;;;;;-147.17;100.00;59696.56;4855184;28;223022;-46
2021/07/03 03:55:22;;;;;;;;;;;;;;;-147.17;100.00;59696.56;322390;28;313332907;-49
2021/07/03 03:57:47;;;;;;;;;20.00;20.00;;;;;-147.17;100.00;59696.56;4296381;28;16648730;-47
2021/07/03 04:00:14;;;;;;;;;16.00;15.00;;;;;-147.17;100.00;59696.56;4942317;28;133396;-47
2021/07/03 04:02:39;;;;;;;;;18.00;17.33;;;;;-147.17;100.00;59696.56;4941657;28;142514;-47
2021/07/03 04:05:05;;;;;;;;;14.67;14.33;;;;;-147.17;100.00;59696.56;4890409;28;223619;-47
2021/07/03 04:07:31;;;;;;;;;16.50;15.50;;;;;-147.17;100.00;59696.56;4864603;28;220723;-47
2021/07/03 04:17:54;;;;;;;;;;;;;;;-147.17;100.00;59696.56;1003311;28;233179410;-48
2021/07/03 04:24:15;;;;;;;;;12.00;12.00;;;;;-147.17;100.00;59696.56;2;257934037;257934037;-47
2021/07/03 04:26:40;;;;;;;;;18.33;17.00;;;;;-147.17;100.00;59696.56;4512705;28;11443655;-47
2021/07/03 04:29:06;;;;;;;;;16.67;16.33;;;;;-147.17;100.00;59696.56;4922742;28;100732;-48
2021/07/03 04:31:31;;;;;;;;;17.33;15.67;;;;;-147.17;100.00;59696.56;4931959;28;145370;-49
2021/07/03 04:33:57;;;;;;;;;16.00;15.00;;;;;-147.17;100.00;59696.56;4905515;28;144746;-49
2021/07/03 04:36:22;;;;;;;;;16.67;16.67;;;;;-147.17;100.00;59696.56;4917224;28;207715;-49
2021/07/03 04:46:55;;;;;;;;;;;;;;;-147.17;100.00;59696.56;1345343;28;232701925;-48
2021/07/03 04:55:06;;;;;;;;;16.50;16.50;;;;;-147.17;100.00;59696.56;2;262686600;262686600;-48
2021/07/03 04:57:32;;;;;;;;;19.00;18.33;;;;;-147.17;100.00;59696.56;4521256;28;5514156;-46
2021/07/03 04:59:57;;;;;;;;;16.33;16.33;;;;;-147.17;100.00;59696.56;4935116;28;111114;-48
2021/07/03 05:02:23;;;;;;;;;18.33;17.67;;;;;-147.17;100.00;59696.56;4916396;28;140814;-47
2021/07/03 05:04:48;;;;;;;;;18.33;16.33;;;;;-147.17;100.00;59696.56;4867933;28;226829;-47
2021/07/03 05:15:14;;;;;;;;;;;;;;;-147.17;100.00;59696.56;4212279;28;313461806;-47
2021/07/03 05:17:40;;;;;;;;;19.75;18.25;;;;;-147.17;100.00;59696.56;4424238;28;8502893;-48
2021/07/03 05:20:07;;;;;;;;;20.00;17.33;;;;;-147.17;100.00;59696.56;4922072;28;124386;-47
2021/07/03 05:24:41;;;;;;;;;;;;;;;-147.17;100.00;59696.56;2046460;28;212698443;-47
2021/07/03 05:27:07;;;;;;;;;19.50;18.75;;;;;-147.17;100.00;59696.56;4681917;28;3675102;-46
2021/07/03 05:29:33;;;;;;;;;19.33;18.00;;;;;-147.17;100.00;59696.56;4947771;28;114191;-46
2021/07/03 05:31:58;;;;;;;;;17.33;17.33;;;;;-147.17;100.00;59696.56;4936707;28;126931;-49
2021/07/03 05:35:41;;;;;;;;;;;;;;;-147.17;100.00;59696.56;1772458;28;169332544;-47
2021/07/03 05:38:06;;;;;;;;;20.00;18.00;;;;;-147.17;100.00;59696.56;4342986;28;4162226;-49
2021/07/03 05:40:32;;;;;;;;;19.00;18.33;;;;;-147.17;100.00;59696.56;4912681;28;147124;-50
2021/07/03 05:43:03;;;;;;;;;;;;;;;-147.17;100.00;59696.56;2291390;28;82276465;-48
2021/07/03 05:45:28;;;;;;;;;20.25;20.00;;;;;-147.17;100.00;59696.56;4246306;28;3827265;-48
2021/07/03 05:48:27;;;;;;;;;20.00;19.00;;;;;-147.17;100.00;59696.56;4532470;28;43893207;-48
2021/07/03 05:50:53;;;;;;;;;17.33;16.33;;;;;-147.17;100.00;59696.56;4373085;28;4159276;-46
2021/07/03 05:53:19;;;;;;;;;15.50;15.50;;;;;-147.17;100.00;59696.56;4372730;28;8431908;-46
2021/07/03 05:55:44;;;;;;;;;18.33;17.67;;;;;-147.17;100.00;59696.56;4162396;28;7751068;-48
2021/07/03 05:58:10;;;;;;;;;18.67;18.33;;;;;-147.17;100.00;59696.56;4930883;28;216978;-48
2021/07/03 06:00:35;;;;;;;;;19.00;18.67;;;;;-147.17;100.00;59696.56;4607564;28;8478079;-49
2021/07/03 06:03:00;;;;;;;;;20.67;20.33;;;;;-147.17;100.00;59696.56;3936608;28;8331011;-49
2021/07/03 06:05:26;;;;;;;;;18.67;18.00;;;;;-147.17;100.00;59696.56;4974819;28;68402;-48
2021/07/03 06:07:51;;;;;;;;;18.00;18.00;;;;;-147.17;100.00;59696.56;4938856;28;174014;-46
2021/07/03 06:10:17;;;;;;;;;20.67;19.67;;;;;-147.17;100.00;59696.56;4896020;28;211709;-48
2021/07/03 06:14:06;;;;;;;;;;;;;;;-147.17;100.00;59696.56;3119023;28;136617674;-50
2021/07/03 06:16:31;;;;;;;;;18.00;18.00;;;;;-147.17;100.00;59696.56;4348288;28;4861052;-48
2021/07/03 06:19:07;;;;;;;;;20.00;20.00;;;;;-147.17;100.00;59696.56;4389294;28;25457134;-48
2021/07/03 06:21:32;;;;;;;;;17.50;16.75;;;;;-147.17;100.00;59696.56;4899410;28;709559;-48
2021/07/03 06:23:57;;;;;;;;;19.00;18.00;;;;;-147.17;100.00;59696.56;4303570;28;17238168;-50
2021/07/03 06:26:23;;;;;;;;;21.50;21.50;;;;;-147.17;100.00;59696.56;4947009;28;119483;-49
2021/07/03 06:28:48;;;;;;;;;18.00;18.00;;;;;-147.17;100.00;59696.56;4943575;28;116871;-48
2021/07/03 06:31:14;;;;;;;;;19.33;19.00;;;;;-147.17;100.00;59696.56;3038846;28;44882776;-46
2021/07/03 06:33:40;;;;;;;;;14.33;13.33;;;;;-147.17;100.00;59696.56;4007131;28;27080224;-48
2021/07/03 06:36:05;;;;;;;;;14.00;14.00;;;;;-147.17;100.00;59696.56;4933169;28;196941;-49
2021/07/03 06:38:42;;;;;;;;;;;;;;;-147.17;100.00;59696.56;3968164;28;39739571;-49
2021/07/03 06:41:07;;;;;;;;;18.33;17.67;;;;;-147.17;100.00;59696.56;4169655;28;23077405;-48
2021/07/03 06:43:32;;;;;;;;;25.00;25.00;;;;;-147.17;100.00;59696.56;3533878;28;41642505;-47
2021/07/03 06:45:58;;;;;;;;;21.33;18.67;;;;;-147.17;100.00;59696.56;3704933;28;36755990;-46
2021/07/03 06:48:23;;;;;;;;;20.33;19.67;;;;;-147.17;100.00;59696.56;2227724;28;79733764;-49
2021/07/03 06:50:48;;;;;;;;;17.67;16.67;;;;;-147.17;100.00;59696.56;2928941;28;59391385;-47
2021/07/03 06:53:14;;;;;;;;;17.50;16.25;;;;;-147.17;100.00;59696.56;2519637;28;49019819;-47
2021/07/03 06:56:20;;;;;;;;;13.00;13.00;;;;;-147.17;100.00;59696.56;2880835;28;51924178;-47
2021/07/03 06:58:47;;;;;;;;;16.00;15.50;;;;;-147.17;100.00;59696.56;4555788;28;11181097;-48
2021/07/03 07:01:17;;;;;;;;;15.33;14.67;;;;;-147.17;100.00;59696.56;2416223;28;39633732;-48
2021/07/03 07:03:44;;;;;;;;;15.50;14.50;;;;;-147.17;100.00;59696.56;3267268;28;16862166;-47
2021/07/03 07:06:11;;;;;;;;;9.50;9.50;;;;;-147.17;100.00;59696.56;3205218;28;32524828;-48
2021/07/03 07:08:36;;;;;;;;;12.00;12.00;;;;;-147.17;100.00;59696.56;4642196;28;3328300;-48
2021/07/03 07:11:02;;;;;;;;;16.33;16.00;;;;;-147.17;100.00;59696.56;4926663;28;182828;-48
2021/07/03 07:13:27;;;;;;;;;11.00;11.00;;;;;-147.17;100.00;59696.56;4961528;28;86525;-48
2021/07/03 07:15:53;;;;;;;;;13.67;13.67;;;;;-147.17;100.00;59696.56;4930285;28;134724;-48
2021/07/03 07:18:18;;;;;;;;;11.67;11.67;;;;;-147.17;100.00;59696.56;4176028;28;2467946;-49
2021/07/03 07:20:43;;;;;;;;;15.00;14.00;;;;;-147.17;100.00;59696.56;4971380;28;88590;-48
2021/07/03 07:23:09;;;;;;;;;14.33;14.33;;;;;-147.17;100.00;59696.56;4987717;28;33603;-50
2021/07/03 07:25:34;;;;;;;;;14.67;14.33;;;;;-147.17;100.00;59696.56;4994790;28;8925;-52
2021/07/03 07:28:00;;;;;;;;;14.33;14.00;;;;;-147.17;100.00;59696.56;5007399;28;8798;-48
2021/07/03 07:30:25;;;;;;;;;13.00;12.33;;;;;-147.17;100.00;59696.56;5006139;28;8744;-49
2021/07/03 07:32:51;;;;;;;;;13.33;13.00;;;;;-147.17;100.00;59696.56;5012592;28;9615;-48
2021/07/03 07:35:16;;;;;;;;;14.00;14.00;;;;;-147.17;100.00;59696.56;5011453;28;8921;-51
2021/07/03 07:37:42;;;;;;;;;14.67;14.33;;;;;-147.17;100.00;59696.56;4996924;28;8989;-49
2021/07/03 07:40:08;;;;;;;;;14.33;14.33;;;;;-147.17;100.00;59696.56;4994138;28;9204;-50
2021/07/03 07:42:34;;;;;;;;;13.00;13.00;;;;;-147.17;100.00;59696.56;5012231;28;8815;-47
2021/07/03 07:45:00;;;;;;;;;15.00;14.33;;;;;-147.17;100.00;59696.56;4998387;28;31850;-50
2021/07/03 07:47:25;;;;;;;;;15.00;15.00;;;;;-147.17;100.00;59696.56;4989520;28;31922;-49
2021/07/03 07:49:51;;;;;;;;;14.00;14.00;;;;;-147.17;100.00;59696.56;4989640;28;32674;-47
2021/07/03 07:52:16;;;;;;;;;15.00;15.00;;;;;-147.17;100.00;59696.56;4988444;28;31870;-47
2021/07/03 07:54:41;;;;;;;;;15.00;14.00;;;;;-147.17;100.00;59696.56;4988330;28;32000;-50
2021/07/03 07:57:07;;;;;;;;;15.00;15.00;;;;;-147.17;100.00;59696.56;4987515;28;31791;-47
2021/07/03 07:59:32;;;;;;;;;15.33;15.00;;;;;-147.17;100.00;59696.56;4989059;28;32738;-47
2021/07/03 08:01:57;;;;;;;;;17.00;17.00;;;;;-147.17;100.00;59696.56;4987359;28;31980;-48
2021/07/03 08:04:23;;;;;;;;;13.33;12.00;;;;;-147.17;100.00;59696.56;4973109;28;32025;-50
2021/07/03 08:06:48;;;;;;;;;9.00;9.00;;;;;-147.17;100.00;59696.56;4984447;28;32229;-49
2021/07/03 08:09:14;;;;;;;;;12.33;12.33;;;;;-147.17;100.00;59696.56;4989708;28;32892;-49
2021/07/03 08:11:39;;;;;;;;;14.00;13.67;;;;;-147.17;100.00;59696.56;4987818;28;32775;-51
2021/07/03 08:14:05;;;;;;;;;14.00;13.67;;;;;-147.17;100.00;59696.56;4986861;28;31961;-50
2021/07/03 08:16:30;;;;;;;;;14.67;13.67;;;;;-147.17;100.00;59696.56;4987499;28;32030;-48
2021/07/03 08:18:55;;;;;;;;;14.33;14.33;;;;;-147.17;100.00;59696.56;4989623;28;31833;-49
2021/07/03 08:21:21;;;;;;;;;18.67;16.00;;;;;-147.17;100.00;59696.56;4989706;28;31998;-50
2021/07/03 08:23:47;;;;;;;;;12.33;12.33;;;;;-147.17;100.00;59696.56;4985562;28;31846;-49
2021/07/03 08:26:12;;;;;;;;;13.33;12.33;;;;;-147.17;100.00;59696.56;4983300;28;32180;-49
2021/07/03 08:28:38;;;;;;;;;12.33;12.33;;;;;-147.17;100.00;59696.56;4990231;28;32879;-48
2021/07/03 08:31:04;;;;;;;;;15.00;14.33;;;;;-147.17;100.00;59696.56;4990263;28;31750;-49
2021/07/03 08:33:29;;;;;;;;;14.67;13.33;;;;;-147.17;100.00;59696.56;4986772;28;31823;-50
2021/07/03 08:35:54;;;;;;;;;14.00;13.00;;;;;-147.17;100.00;59696.56;4982176;28;31961;-48
2021/07/03 08:38:20;;;;;;;;;17.67;15.67;;;;;-147.17;100.00;59696.56;4977110;28;32781;-47
2021/07/03 08:40:45;;;;;;;;;14.00;14.00;;;;;-147.17;100.00;59696.56;4978215;28;31818;-49
2021/07/03 08:43:11;;;;;;;;;15.00;15.00;;;;;-147.17;100.00;59696.56;4988746;28;31823;-49
2021/07/03 08:45:36;;;;;;;;;14.33;14.33;;;;;-147.17;100.00;59696.56;4990456;28;31755;-49
2021/07/03 08:48:02;;;;;;;;;13.67;13.33;;;;;-147.17;100.00;59696.56;4989901;28;32577;-48
2021/07/03 08:50:27;;;;;;;;;13.00;13.00;;;;;-147.17;100.00;59696.56;4989201;28;31781;-51
2021/07/03 08:52:52;;;;;;;;;16.00;16.00;;;;;-147.17;100.00;59696.56;4988416;28;32100;-49
2021/07/03 08:55:23;;;;;;;;;11.00;11.00;;;;;-147.17;100.00;59696.56;4990210;28;31947;-47
2021/07/03 08:57:51;;;;;;;;;16.33;14.67;;;;;-147.17;100.00;59696.56;4970833;28;31938;-48
2021/07/03 09:00:23;;;;;;;;;15.67;15.67;;;;;-147.17;100.00;59696.56;4989309;28;31990;-51
2021/07/03 09:02:49;;;;;;;;;15.00;15.00;;;;;-147.17;100.00;59696.56;4977791;28;33097;-49
2021/07/03 09:05:26;;;;;;;;;17.00;17.00;;;;;-147.17;100.00;59696.56;4985557;28;31732;-48
2021/07/03 09:07:57;;;;;;;;;15.67;15.00;;;;;-147.17;100.00;59696.56;4988252;28;32644;-47
2021/07/03 09:10:23;;;;;;;;;16.00;14.33;;;;;-147.17;100.00;59696.56;4987728;28;31947;-49
2021/07/03 09:12:51;;;;;;;;;17.00;16.67;;;;;-147.17;100.00;59696.56;4984947;28;31992;-48
2021/07/03 09:15:22;;;;;;;;;16.33;16.00;;;;;-147.17;100.00;59696.56;4988583;28;32226;-49
2021/07/03 09:17:54;;;;;;;;;19.67;19.00;;;;;-147.17;100.00;59696.56;4971351;28;32034;-47
2021/07/03 09:20:30;;;;;;;;;15.67;15.00;;;;;-147.17;100.00;59696.56;4971034;28;32069;-49
2021/07/03 09:23:17;;;;;;;;;16.33;16.00;;;;;-147.17;100.00;59696.56;4970254;28;31866;-52
2021/07/03 09:25:45;;;;;;;;;16.67;16.33;;;;;-147.17;100.00;59696.56;4984216;28;34306;-50
2021/07/03 09:28:19;;;;;;;;;17.33;17.33;;;;;-147.17;100.00;59696.56;4989710;28;32023;-51
2021/07/03 09:30:48;;;;;;;;;18.67;18.00;;;;;-147.17;100.00;59696.56;4986050;28;32066;-49
2021/07/03 09:33:18;;;;;;;;;17.00;17.00;;;;;-147.17;100.00;59696.56;4982024;28;31909;-48
2021/07/03 09:35:43;;;;;;;;;20.33;20.00;;;;;-147.17;100.00;59696.56;4982697;28;31756;-49
2021/07/03 09:38:09;;;;;;;;;19.00;18.00;;;;;-147.17;100.00;59696.56;4995187;28;31801;-51
2021/07/03 09:40:36;;;;;;;;;21.00;19.33;;;;;-147.17;100.00;59696.56;4987327;28;31915;-46
2021/07/03 09:43:11;;;;;;;;;20.00;19.00;;;;;-147.17;100.00;59696.56;4988869;28;31959;-50
2021/07/03 09:45:39;;;;;;;;;26.33;25.00;;;;;-147.17;100.00;59696.56;4988971;28;31922;-50
2021/07/03 09:48:11;;;;;;;;;16.00;15.67;;;;;-147.17;100.00;59696.56;4988514;28;33582;-48
2021/07/03 09:50:39;;;;;;;;;21.67;18.33;;;;;-147.17;100.00;59696.56;4972203;28;31938;-48
2021/07/03 09:53:06;;;;;;;;;20.00;19.33;;;;;-147.17;100.00;59696.56;4988166;28;31949;-47
2021/07/03 09:55:33;;;;;;;;;14.00;13.33;;;;;-147.17;100.00;59696.56;4988732;28;32107;-48
2021/07/03 09:57:59;;;;;;;;;20.00;19.67;;;;;-147.17;100.00;59696.56;4977874;28;32019;-48
2021/07/03 10:00:24;;;;;;;;;17.00;17.00;;;;;-147.17;100.00;59696.56;4988391;28;31763;-48
2021/07/03 10:02:51;;;;;;;;;18.00;18.00;;;;;-147.17;100.00;59696.56;4987804;28;32047;-46
2021/07/03 10:05:20;;;;;;;;;19.00;18.33;;;;;-147.17;100.00;59696.56;4988281;28;31834;-47
2021/07/03 10:07:51;;;;;;;;;15.00;15.00;;;;;-147.17;100.00;59696.56;4987746;28;31954;-47
2021/07/03 10:10:23;;;;;;;;;20.00;18.67;;;;;-147.17;100.00;59696.56;4970647;28;31856;-46
2021/07/03 10:13:00;;;;;;;;;18.00;17.00;;;;;-147.17;100.00;59696.56;4966374;28;31868;-47
2021/07/03 10:15:35;;;;;;;;;16.00;15.67;;;;;-147.17;100.00;59696.56;4984964;28;32076;-49
2021/07/03 10:18:21;;;;;;;;;17.33;17.33;;;;;-147.17;100.00;59696.56;4988089;28;32668;-48
2021/07/03 10:20:48;;;;;;;;;18.00;16.00;;;;;-147.17;100.00;59696.56;4975619;28;31732;-46
2021/07/03 10:23:13;;;;;;;;;17.33;15.00;;;;;-147.17;100.00;59696.56;4988046;28;31983;-48
2021/07/03 10:25:45;;;;;;;;;15.33;15.00;;;;;-147.17;100.00;59696.56;4971858;28;31935;-47
2021/07/03 10:28:13;;;;;;;;;10.67;10.00;;;;;-147.17;100.00;59696.56;4991828;28;31816;-46
2021/07/03 10:30:42;;;;;;;;;15.00;14.00;;;;;-147.17;100.00;59696.56;4991380;28;32047;-48
2021/07/03 10:33:11;;;;;;;;;16.33;16.33;;;;;-147.17;100.00;59696.56;4973968;28;31890;-48
2021/07/03 10:35:53;;;;;;;;;16.33;16.00;;;;;-147.17;100.00;59696.56;4991479;28;31997;-46
2021/07/03 10:38:24;;;;;;;;;15.00;15.00;;;;;-147.17;100.00;59696.56;4979465;28;32624;-47
2021/07/03 10:40:53;;;;;;;;;17.00;16.67;;;;;-147.17;100.00;59696.56;4981738;28;31866;-48
2021/07/03 10:43:19;;;;;;;;;16.00;15.00;;;;;-147.17;100.00;59696.56;4973517;28;31749;-47
2021/07/03 10:45:45;;;;;;;;;15.67;14.67;;;;;-147.17;100.00;59696.56;4988411;28;31887;-48
2021/07/03 10:48:20;;;;;;;;;18.00;16.33;;;;;-147.17;100.00;59696.56;4992213;28;33606;-48
2021/07/03 10:50:48;;;;;;;;;14.67;14.67;;;;;-147.17;100.00;59696.56;4997461;28;31761;-48
2021/07/03 10:53:28;;;;;;;;;14.00;13.33;;;;;-147.17;100.00;59696.56;4995352;28;31943;-48
2021/07/03 10:55:55;;;;;;;;;20.00;20.00;;;;;-147.17;100.00;59696.56;4972812;28;32104;-46
2021/07/03 10:58:27;;;;;;;;;13.67;13.67;;;;;-147.17;100.00;59696.56;4971246;28;33300;-48
2021/07/03 11:01:04;;;;;;;;;14.67;14.33;;;;;-147.17;100.00;59696.56;4990401;28;31758;-48
2021/07/03 11:03:43;;;;;;;;;11.33;11.00;;;;;-147.17;100.00;59696.56;4990912;28;31881;-47
2021/07/03 11:06:20;;;;;;;;;12.00;11.33;;;;;-147.17;100.00;59696.56;4989924;28;32177;-47
2021/07/03 11:08:47;;;;;;;;;8.67;7.67;;;;;-147.17;100.00;59696.56;4990002;28;31939;-47
2021/07/03 11:11:15;;;;;;;;;9.33;9.00;;;;;-147.17;100.00;59696.56;4990363;28;31911;-47
2021/07/03 11:13:42;;;;;;;;;12.67;12.33;;;;;-147.17;100.00;59696.56;4989051;28;31889;-47
2021/07/03 11:16:10;;;;;;;;;10.00;9.00;;;;;-147.17;100.00;59696.56;4990723;28;31772;-46
2021/07/03 11:18:44;;;;;;;;;10.00;10.00;;;;;-147.17;100.00;59696.56;4990336;28;31933;-47
2021/07/03 11:21:13;;;;;;;;;10.00;9.00;;;;;-147.17;100.00;59696.56;4990058;28;31921;-50
2021/07/03 11:23:39;;;;;;;;;15.67;15.67;;;;;-147.17;100.00;59696.56;4989948;28;31877;-49
2021/07/03 11:26:12;;;;;;;;;8.00;7.67;;;;;-147.17;100.00;59696.56;4990661;28;31898;-48
2021/07/03 11:28:38;;;;;;;;;10.33;10.00;;;;;-147.17;100.00;59696.56;4989911;28;31818;-49
2021/07/03 11:31:04;;;;;;;;;10.00;9.00;;;;;-147.17;100.00;59696.56;4990123;28;31865;-48
2021/07/03 11:33:32;;;;;;;;;8.67;8.67;;;;;-147.17;100.00;59696.56;4990018;28;31824;-48
2021/07/03 11:35:58;;;;;;;;;8.00;8.00;;;;;-147.17;100.00;59696.56;4990397;28;31759;-48
2021/07/03 11:38:25;;;;;;;;;8.00;7.67;;;;;-147.17;100.00;59696.56;4988871;28;32095;-50
2021/07/03 11:40:55;;;;;;;;;9.33;9.33;;;;;-147.17;100.00;59696.56;4989891;28;31850;-48
2021/07/03 11:43:22;;;;;;;;;10.00;9.00;;;;;-147.17;100.00;59696.56;4989969;28;31961;-47
2021/07/03 11:45:48;;;;;;;;;9.33;8.67;;;;;-147.17;100.00;59696.56;4986590;28;31937;-48
2021/07/03 11:48:14;;;;;;;;;8.00;8.00;;;;;-147.17;100.00;59696.56;4982868;28;34328;-50
2021/07/03 11:50:48;;;;;;;;;6.00;6.00;;;;;-147.17;100.00;59696.56;4981670;28;31894;-49
2021/07/03 11:53:15;;;;;;;;;9.00;9.00;;;;;-147.17;100.00;59696.56;4989747;28;31941;-51
2021/07/03 11:55:45;;;;;;;;;8.67;8.67;;;;;-147.17;100.00;59696.56;4988551;28;31941;-49
2021/07/03 11:58:13;;;;;;;;;8.67;7.67;;;;;-147.17;100.00;59696.56;4989475;28;32081;-50
2021/07/03 12:00:44;;;;;;;;;4.00;4.00;;;;;-147.17;100.00;59696.56;4989327;28;31849;-51
2021/07/03 12:03:11;;;;;;;;;9.00;8.33;;;;;-147.17;100.00;59696.56;4970893;28;32190;-48
2021/07/03 12:05:39;;;;;;;;;8.33;7.67;;;;;-147.17;100.00;59696.56;4991837;28;31777;-50
2021/07/03 12:08:07;;;;;;;;;5.67;5.67;;;;;-147.17;100.00;59696.56;4987738;28;32045;-48
2021/07/03 12:10:35;;;;;;;;;8.67;7.67;;;;;-147.17;100.00;59696.56;4987948;28;31953;-51
2021/07/03 12:13:00;;;;;;;;;10.33;10.00;;;;;-147.17;100.00;59696.56;4990952;28;32114;-50
2021/07/03 12:15:26;;;;;;;;;5.33;5.33;;;;;-147.17;100.00;59696.56;4989359;28;31755;-53
2021/07/03 12:17:52;;;;;;;;;9.33;9.00;;;;;-147.17;100.00;59696.56;4980171;28;32603;-49